Time;durP1;ratioP1;P1;durP2;ratioP2;P2;SDS_P1;SDS_P2;PMS_P1;PMS_P2;Temp;Humidity;BMP_temperature;BMP_pressure;BME280_temperature;BME280_humidity;BME280_pressure;Samples;Min_cycle;Max_cycle;Signal;HPM_P1;HPM_P2
2023/07/25 00:02:28;;;;;;;4.20;2.08;;;;;;;;;;5103781;28;20113;-62
2023/07/25 00:04:57;;;;;;;3.28;1.90;;;;;;;;;;5102224;28;20051;-62
2023/07/25 00:07:26;;;;;;;2.65;1.75;;;;;;;;;;5104368;28;20047;-61
2023/07/25 00:09:55;;;;;;;3.75;1.92;;;;;;;;;;5095229;28;20140;-62
2023/07/25 00:12:23;;;;;;;3.28;2.08;;;;;;;;;;5101274;28;20044;-66
2023/07/25 00:14:51;;;;;;;5.22;1.83;;;;;;;;;;5090565;28;21543;-65
2023/07/25 00:17:20;;;;;;;2.40;1.65;;;;;;;;;;5103536;28;20112;-62
2023/07/25 00:19:50;;;;;;;4.20;1.90;;;;;;;;;;5103853;28;20148;-62
2023/07/25 00:22:18;;;;;;;3.33;1.92;;;;;;;;;;5105017;28;20574;-62
2023/07/25 00:24:46;;;;;;;4.28;1.73;;;;;;;;;;5089879;28;20566;-62
2023/07/25 00:27:15;;;;;;;3.70;2.10;;;;;;;;;;5102079;28;20043;-67
2023/07/25 00:29:43;;;;;;;8.13;2.03;;;;;;;;;;5097942;28;20069;-65
2023/07/25 00:32:11;;;;;;;3.25;1.90;;;;;;;;;;5102991;28;20052;-59
2023/07/25 00:34:40;;;;;;;2.88;1.80;;;;;;;;;;5101693;28;20043;-61
2023/07/25 00:37:10;;;;;;;4.45;1.85;;;;;;;;;;5103838;28;20048;-62
2023/07/25 00:39:38;;;;;;;3.88;1.65;;;;;;;;;;5096709;28;20071;-62
2023/07/25 00:42:07;;;;;;;2.63;1.60;;;;;;;;;;5101341;28;20054;-63
2023/07/25 00:44:35;;;;;;;3.72;1.90;;;;;;;;;;5097763;28;20048;-62
2023/07/25 00:47:04;;;;;;;4.43;2.10;;;;;;;;;;5102609;28;20048;-61
2023/07/25 00:49:32;;;;;;;2.75;1.65;;;;;;;;;;5095228;28;20040;-62
2023/07/25 00:52:01;;;;;;;4.30;2.08;;;;;;;;;;5104012;28;20500;-63
2023/07/25 00:54:30;;;;;;;5.35;2.28;;;;;;;;;;5092352;28;20071;-62
2023/07/25 00:56:59;;;;;;;2.42;1.70;;;;;;;;;;5105041;28;20044;-62
2023/07/25 00:59:27;;;;;;;4.95;1.63;;;;;;;;;;5099913;28;20484;-62
2023/07/25 01:01:56;;;;;;;2.90;1.70;;;;;;;;;;5102269;28;20488;-64
2023/07/25 01:04:25;;;;;;;3.47;1.80;;;;;;;;;;5113094;22;20047;-59
2023/07/25 01:06:54;;;;;;;3.50;1.70;;;;;;;;;;5097546;27;20075;-57
2023/07/25 01:09:36;;;;;;;3.05;1.98;;;;;;;;;;5096036;28;20130;-56
2023/07/25 01:12:05;;;;;;;5.13;2.35;;;;;;;;;;5098702;28;20875;-56
2023/07/25 01:14:34;;;;;;;3.97;1.77;;;;;;;;;;5095343;27;20047;-58
2023/07/25 01:17:06;;;;;;;4.47;2.00;;;;;;;;;;5094396;27;20510;-64
2023/07/25 01:19:35;;;;;;;4.40;1.70;;;;;;;;;;5096605;27;20816;-60
2023/07/25 01:22:04;;;;;;;3.22;1.98;;;;;;;;;;5095515;28;20047;-57
2023/07/25 01:24:33;;;;;;;4.13;1.80;;;;;;;;;;5089527;27;20155;-57
2023/07/25 01:27:02;;;;;;;3.03;1.67;;;;;;;;;;5094466;28;20134;-60
2023/07/25 01:29:31;;;;;;;5.05;1.90;;;;;;;;;;5093559;28;20971;-64
2023/07/25 01:31:59;;;;;;;4.00;1.65;;;;;;;;;;5093552;27;20039;-65
2023/07/25 01:34:28;;;;;;;3.78;1.65;;;;;;;;;;5097609;27;20067;-58
2023/07/25 01:36:56;;;;;;;3.00;1.52;;;;;;;;;;5095664;28;20046;-59
2023/07/25 01:39:24;;;;;;;3.35;1.70;;;;;;;;;;5094860;28;20501;-58
2023/07/25 01:41:54;;;;;;;2.53;1.40;;;;;;;;;;5097534;28;20104;-60
2023/07/25 01:44:23;;;;;;;6.90;2.15;;;;;;;;;;5089932;27;20079;-57
2023/07/25 01:46:51;;;;;;;4.43;1.85;;;;;;;;;;5097891;28;20039;-57
2023/07/25 01:49:19;;;;;;;5.43;2.08;;;;;;;;;;5097863;27;20039;-62
2023/07/25 01:51:48;;;;;;;3.65;2.10;;;;;;;;;;5096409;27;20134;-56
2023/07/25 01:54:17;;;;;;;4.93;2.00;;;;;;;;;;5096870;27;20583;-62
2023/07/25 01:56:46;;;;;;;4.32;2.08;;;;;;;;;;5097281;28;20126;-59
2023/07/25 01:59:19;;;;;;;3.42;1.77;;;;;;;;;;5095454;28;20631;-57
2023/07/25 02:01:48;;;;;;;5.25;2.03;;;;;;;;;;5096972;28;20555;-56
2023/07/25 02:04:16;;;;;;;4.63;1.75;;;;;;;;;;5095617;28;20096;-57
2023/07/25 02:06:44;;;;;;;3.05;1.83;;;;;;;;;;5098273;28;20330;-64
2023/07/25 02:09:13;;;;;;;4.63;2.47;;;;;;;;;;5094461;28;20047;-61
2023/07/25 02:11:41;;;;;;;4.18;2.10;;;;;;;;;;5099103;28;20043;-60
2023/07/25 02:14:09;;;;;;;3.13;1.73;;;;;;;;;;5092717;28;20429;-58
2023/07/25 02:16:40;;;;;;;4.05;1.90;;;;;;;;;;5095121;28;20126;-63
2023/07/25 02:19:09;;;;;;;4.05;1.80;;;;;;;;;;5097763;28;20047;-57
2023/07/25 02:21:37;;;;;;;3.97;1.88;;;;;;;;;;5097692;28;20127;-58
2023/07/25 02:24:06;;;;;;;3.75;1.50;;;;;;;;;;5098615;28;20778;-62
2023/07/25 02:26:35;;;;;;;5.10;1.88;;;;;;;;;;5098846;27;20052;-63
2023/07/25 02:29:03;;;;;;;4.40;2.15;;;;;;;;;;5097764;27;20040;-60
2023/07/25 02:31:31;;;;;;;7.70;2.20;;;;;;;;;;5100373;27;20548;-63
2023/07/25 02:34:02;;;;;;;3.47;2.20;;;;;;;;;;5098854;27;20054;-59
2023/07/25 02:36:30;;;;;;;4.93;2.40;;;;;;;;;;5098222;28;20048;-58
2023/07/25 02:38:59;;;;;;;3.97;2.08;;;;;;;;;;5101532;27;20044;-58
2023/07/25 02:41:27;;;;;;;5.80;2.10;;;;;;;;;;5097208;27;20052;-59
2023/07/25 02:43:56;;;;;;;7.55;2.33;;;;;;;;;;5097789;27;20064;-58
2023/07/25 02:46:24;;;;;;;3.67;1.95;;;;;;;;;;5093958;28;20140;-64
2023/07/25 02:48:53;;;;;;;5.47;2.20;;;;;;;;;;5099322;27;20071;-57
2023/07/25 02:51:23;;;;;;;3.60;1.83;;;;;;;;;;5098929;27;20109;-58
2023/07/25 02:53:51;;;;;;;3.40;1.80;;;;;;;;;;5098847;27;20479;-64
2023/07/25 02:56:20;;;;;;;3.50;1.95;;;;;;;;;;5098803;27;20052;-63
2023/07/25 02:58:48;;;;;;;3.40;1.52;;;;;;;;;;5096480;27;20039;-56
2023/07/25 03:01:18;;;;;;;3.67;1.75;;;;;;;;;;5100703;28;20587;-57
2023/07/25 03:03:46;;;;;;;3.72;1.50;;;;;;;;;;5103121;27;20101;-57
2023/07/25 03:06:15;;;;;;;2.65;1.75;;;;;;;;;;5098646;27;20047;-57
2023/07/25 03:08:45;;;;;;;2.58;1.60;;;;;;;;;;5099865;27;20152;-57
2023/07/25 03:11:13;;;;;;;3.03;1.60;;;;;;;;;;5099560;27;20514;-58
2023/07/25 03:13:41;;;;;;;2.20;1.40;;;;;;;;;;5096910;28;20516;-57
2023/07/25 03:16:10;;;;;;;3.15;1.85;;;;;;;;;;5098571;27;20127;-57
2023/07/25 03:18:38;;;;;;;3.10;1.92;;;;;;;;;;5096445;27;20054;-61
2023/07/25 03:21:07;;;;;;;2.65;1.77;;;;;;;;;;5099204;28;20116;-57
2023/07/25 03:23:35;;;;;;;3.67;1.80;;;;;;;;;;5100707;27;20044;-58
2023/07/25 03:26:05;;;;;;;3.80;1.73;;;;;;;;;;5095715;28;20067;-57
2023/07/25 03:28:33;;;;;;;3.20;1.55;;;;;;;;;;5093288;27;20180;-62
2023/07/25 03:31:02;;;;;;;6.47;2.40;;;;;;;;;;5097002;27;20039;-59
2023/07/25 03:33:30;;;;;;;4.68;2.10;;;;;;;;;;5097436;27;20118;-62
2023/07/25 03:35:59;;;;;;;3.05;2.08;;;;;;;;;;5097732;28;20088;-60
2023/07/25 03:38:27;;;;;;;6.13;2.28;;;;;;;;;;5095945;27;20048;-57
2023/07/25 03:40:55;;;;;;;4.82;1.80;;;;;;;;;;5096874;27;20051;-59
2023/07/25 03:43:25;;;;;;;3.30;1.75;;;;;;;;;;5095571;27;20043;-59
2023/07/25 03:45:54;;;;;;;4.15;1.77;;;;;;;;;;5094772;28;20461;-59
2023/07/25 03:48:22;;;;;;;4.80;2.22;;;;;;;;;;5100429;28;20073;-60
2023/07/25 03:50:50;;;;;;;3.63;1.90;;;;;;;;;;5093622;27;20135;-60
2023/07/25 03:53:19;;;;;;;3.85;1.80;;;;;;;;;;5098417;27;20125;-57
2023/07/25 03:55:48;;;;;;;2.72;1.52;;;;;;;;;;5097268;27;20573;-57
2023/07/25 03:58:16;;;;;;;5.13;1.63;;;;;;;;;;5095934;27;20071;-57
2023/07/25 04:00:46;;;;;;;5.88;2.20;;;;;;;;;;5099188;28;20075;-59
2023/07/25 04:03:14;;;;;;;87.93;7.45;;;;;;;;;;5095429;27;20136;-58
2023/07/25 04:05:43;;;;;;;3.63;1.95;;;;;;;;;;5096116;27;20068;-59
2023/07/25 04:08:11;;;;;;;4.07;2.00;;;;;;;;;;5098343;27;20484;-60
2023/07/25 04:10:40;;;;;;;3.78;1.90;;;;;;;;;;5098662;27;20471;-60
2023/07/25 04:13:08;;;;;;;5.95;1.55;;;;;;;;;;5095428;27;20094;-58
2023/07/25 04:15:37;;;;;;;5.82;2.33;;;;;;;;;;5092547;28;20730;-57
2023/07/25 04:18:06;;;;;;;3.55;2.05;;;;;;;;;;5099260;27;20063;-56
2023/07/25 04:20:35;;;;;;;3.53;1.80;;;;;;;;;;5095369;27;20052;-57
2023/07/25 04:23:03;;;;;;;4.30;1.92;;;;;;;;;;5093401;27;20040;-61
2023/07/25 04:25:31;;;;;;;4.45;2.03;;;;;;;;;;5093204;27;20557;-57
2023/07/25 04:28:00;;;;;;;3.72;2.13;;;;;;;;;;5095674;27;20089;-58
2023/07/25 04:30:28;;;;;;;5.88;2.17;;;;;;;;;;5095663;27;20089;-58
2023/07/25 04:32:57;;;;;;;3.55;1.88;;;;;;;;;;5098692;27;20889;-57
2023/07/25 04:35:26;;;;;;;5.35;1.83;;;;;;;;;;5098687;27;20062;-57
2023/07/25 04:37:55;;;;;;;8.35;2.30;;;;;;;;;;5095734;28;20464;-61
2023/07/25 04:40:23;;;;;;;4.35;2.10;;;;;;;;;;5098235;27;20484;-61
2023/07/25 04:42:51;;;;;;;3.10;1.73;;;;;;;;;;5096069;27;20055;-57
2023/07/25 04:45:20;;;;;;;3.20;1.80;;;;;;;;;;5095115;27;20048;-57
2023/07/25 04:47:48;;;;;;;5.30;2.05;;;;;;;;;;5095341;28;20492;-59
2023/07/25 04:50:16;;;;;;;4.88;1.90;;;;;;;;;;5094303;27;20043;-58
2023/07/25 04:52:46;;;;;;;5.53;2.10;;;;;;;;;;5091667;27;20092;-57
2023/07/25 04:55:15;;;;;;;2.67;1.67;;;;;;;;;;5094788;27;20071;-58
2023/07/25 04:57:44;;;;;;;2.88;1.70;;;;;;;;;;5095098;27;20039;-59
2023/07/25 05:00:13;;;;;;;3.40;1.83;;;;;;;;;;5095959;27;20079;-58
2023/07/25 05:02:42;;;;;;;3.30;1.60;;;;;;;;;;5096772;28;20362;-65
2023/07/25 05:05:10;;;;;;;2.50;1.60;;;;;;;;;;5094585;27;20501;-58
2023/07/25 05:07:39;;;;;;;5.03;2.10;;;;;;;;;;5093453;27;20047;-58
2023/07/25 05:10:09;;;;;;;3.55;1.60;;;;;;;;;;5099534;27;20043;-57
2023/07/25 05:12:38;;;;;;;5.97;2.05;;;;;;;;;;5096638;27;20564;-58
2023/07/25 05:15:07;;;;;;;4.13;1.73;;;;;;;;;;5095151;28;20843;-63
2023/07/25 05:17:35;;;;;;;4.05;2.00;;;;;;;;;;5095683;27;20055;-57
2023/07/25 05:20:04;;;;;;;6.90;2.13;;;;;;;;;;5089806;27;20055;-60
2023/07/25 05:22:32;;;;;;;6.50;2.17;;;;;;;;;;5094776;28;20063;-57
2023/07/25 05:25:00;;;;;;;3.95;1.85;;;;;;;;;;5094762;27;20059;-59
2023/07/25 05:27:30;;;;;;;3.33;1.75;;;;;;;;;;5098726;28;20104;-57
2023/07/25 05:29:59;;;;;;;4.28;1.77;;;;;;;;;;5094248;28;20059;-60
2023/07/25 05:32:27;;;;;;;3.00;1.70;;;;;;;;;;5092128;28;20448;-57
2023/07/25 05:34:55;;;;;;;3.22;1.85;;;;;;;;;;5093845;27;20442;-57
2023/07/25 05:37:34;;;;;;;3.22;1.67;;;;;;;;;;5095719;27;20888;-61
2023/07/25 05:40:03;;;;;;;3.90;2.15;;;;;;;;;;5093488;28;20059;-59
2023/07/25 05:42:33;;;;;;;3.33;1.90;;;;;;;;;;5092156;28;20063;-65
2023/07/25 05:45:01;;;;;;;3.33;1.73;;;;;;;;;;5094817;27;20048;-58
2023/07/25 05:47:30;;;;;;;4.95;2.15;;;;;;;;;;5092519;28;20827;-58
2023/07/25 05:49:59;;;;;;;3.28;2.00;;;;;;;;;;5097200;28;20068;-62
2023/07/25 05:52:27;;;;;;;2.95;1.70;;;;;;;;;;5094142;28;20138;-61
2023/07/25 05:54:55;;;;;;;3.13;1.92;;;;;;;;;;5096971;27;20047;-60
2023/07/25 05:57:24;;;;;;;6.20;1.70;;;;;;;;;;5098484;28;20054;-60
2023/07/25 05:59:54;;;;;;;4.57;2.05;;;;;;;;;;5096227;28;20063;-65
2023/07/25 06:02:22;;;;;;;2.60;1.58;;;;;;;;;;5094079;28;20051;-61
2023/07/25 06:04:51;;;;;;;4.35;1.73;;;;;;;;;;5098093;28;20047;-63
2023/07/25 06:07:19;;;;;;;4.13;1.85;;;;;;;;;;5099069;28;20519;-60
2023/07/25 06:09:51;;;;;;;4.32;1.92;;;;;;;;;;5094040;28;20096;-61
2023/07/25 06:12:19;;;;;;;5.57;2.40;;;;;;;;;;5097283;28;20447;-66
2023/07/25 06:14:47;;;;;;;2.20;1.70;;;;;;;;;;5099907;28;20385;-62
2023/07/25 06:17:17;;;;;;;5.80;2.28;;;;;;;;;;5095555;28;20079;-62
2023/07/25 06:19:46;;;;;;;3.60;1.63;;;;;;;;;;5094703;28;20117;-60
2023/07/25 06:22:16;;;;;;;3.58;1.80;;;;;;;;;;5095333;28;20489;-61
2023/07/25 06:24:45;;;;;;;4.45;2.05;;;;;;;;;;5096374;28;20051;-59
2023/07/25 06:27:13;;;;;;;4.78;1.65;;;;;;;;;;5096457;28;20050;-60
2023/07/25 06:29:42;;;;;;;6.18;2.15;;;;;;;;;;5097868;28;20324;-60
2023/07/25 06:32:10;;;;;;;4.95;1.80;;;;;;;;;;5093403;28;20063;-61
2023/07/25 06:34:40;;;;;;;3.72;2.30;;;;;;;;;;5094379;28;20055;-60
2023/07/25 06:37:08;;;;;;;3.65;1.80;;;;;;;;;;5092784;28;20400;-61
2023/07/25 06:39:37;;;;;;;5.68;2.00;;;;;;;;;;5093956;28;20088;-60
2023/07/25 06:42:05;;;;;;;5.32;1.88;;;;;;;;;;5097923;28;20574;-61
2023/07/25 06:44:34;;;;;;;6.20;2.03;;;;;;;;;;5101282;28;20112;-62
2023/07/25 06:47:02;;;;;;;5.65;1.95;;;;;;;;;;5098015;28;20051;-59
2023/07/25 06:49:31;;;;;;;5.07;2.17;;;;;;;;;;5095769;28;20517;-61
2023/07/25 06:52:01;;;;;;;3.80;2.05;;;;;;;;;;5095211;28;20098;-61
2023/07/25 06:54:29;;;;;;;5.25;2.13;;;;;;;;;;5100979;28;20047;-64
2023/07/25 06:56:57;;;;;;;5.10;2.20;;;;;;;;;;5101274;28;20054;-59
2023/07/25 06:59:28;;;;;;;4.70;2.10;;;;;;;;;;5095896;28;20051;-60
2023/07/25 07:01:57;;;;;;;7.38;2.38;;;;;;;;;;5100236;28;20043;-59
2023/07/25 07:04:26;;;;;;;5.75;2.13;;;;;;;;;;5096987;27;20052;-60
2023/07/25 07:06:54;;;;;;;4.30;2.05;;;;;;;;;;5099943;28;20051;-58
2023/07/25 07:09:24;;;;;;;4.07;2.13;;;;;;;;;;5098919;28;20067;-61
2023/07/25 07:11:52;;;;;;;3.40;1.98;;;;;;;;;;5102887;28;20085;-59
2023/07/25 07:14:21;;;;;;;4.25;2.47;;;;;;;;;;5099275;27;20044;-59
2023/07/25 07:16:49;;;;;;;3.95;1.90;;;;;;;;;;5101126;27;20101;-59
2023/07/25 07:19:18;;;;;;;3.92;2.08;;;;;;;;;;5101478;27;20401;-61
2023/07/25 07:21:46;;;;;;;3.65;2.08;;;;;;;;;;5101006;27;20258;-60
2023/07/25 07:24:14;;;;;;;4.57;2.25;;;;;;;;;;5104221;27;20377;-64
2023/07/25 07:26:44;;;;;;;4.65;2.40;;;;;;;;;;5103900;27;20503;-59
2023/07/25 07:29:13;;;;;;;3.88;1.88;;;;;;;;;;5098525;27;20484;-64
2023/07/25 07:31:41;;;;;;;4.05;2.15;;;;;;;;;;5101789;27;20066;-60
2023/07/25 07:34:10;;;;;;;4.00;1.95;;;;;;;;;;5099631;27;20950;-61
2023/07/25 07:36:38;;;;;;;3.92;1.75;;;;;;;;;;5102019;27;20047;-60
2023/07/25 07:39:07;;;;;;;4.15;1.90;;;;;;;;;;5098117;27;20048;-62
2023/07/25 07:41:35;;;;;;;3.78;1.95;;;;;;;;;;5100631;27;20420;-61
2023/07/25 07:44:06;;;;;;;5.57;2.40;;;;;;;;;;5098854;27;20560;-59
2023/07/25 07:46:36;;;;;;;3.60;1.83;;;;;;;;;;5101531;27;20105;-60
2023/07/25 07:49:05;;;;;;;4.40;2.10;;;;;;;;;;5099876;27;20378;-59
2023/07/25 07:51:33;;;;;;;4.22;1.92;;;;;;;;;;5107538;28;20438;-59
2023/07/25 07:54:02;;;;;;;4.30;1.80;;;;;;;;;;5106779;28;20493;-60
2023/07/25 07:56:30;;;;;;;4.18;2.10;;;;;;;;;;5104360;27;20055;-60
2023/07/25 07:58:59;;;;;;;3.78;2.20;;;;;;;;;;5107737;28;20405;-64
2023/07/25 08:01:29;;;;;;;4.22;1.63;;;;;;;;;;5104793;27;20409;-59
2023/07/25 08:03:58;;;;;;;3.78;1.80;;;;;;;;;;5108661;27;20075;-61
2023/07/25 08:06:27;;;;;;;5.45;1.90;;;;;;;;;;5108246;28;20039;-60
2023/07/25 08:08:56;;;;;;;5.35;1.88;;;;;;;;;;5107847;27;20510;-60
2023/07/25 08:11:25;;;;;;;2.70;1.77;;;;;;;;;;5109067;27;20055;-64
2023/07/25 08:13:53;;;;;;;3.67;1.80;;;;;;;;;;5106800;28;20481;-60
2023/07/25 08:16:22;;;;;;;3.15;1.63;;;;;;;;;;5107682;28;20499;-60
2023/07/25 08:18:53;;;;;;;3.65;1.73;;;;;;;;;;5107600;28;20519;-59
2023/07/25 08:21:22;;;;;;;3.65;1.50;;;;;;;;;;5107871;28;20565;-65
2023/07/25 08:23:50;;;;;;;3.83;1.65;;;;;;;;;;5104614;28;20311;-60
2023/07/25 08:26:18;;;;;;;4.72;2.00;;;;;;;;;;5108345;28;20043;-60
2023/07/25 08:28:47;;;;;;;6.78;1.70;;;;;;;;;;5103875;28;20040;-60
2023/07/25 08:31:15;;;;;;;4.57;2.05;;;;;;;;;;5103003;27;20559;-61
2023/07/25 08:33:44;;;;;;;2.85;1.70;;;;;;;;;;5104606;28;20405;-61
2023/07/25 08:36:14;;;;;;;3.67;1.63;;;;;;;;;;5108791;28;20056;-61
2023/07/25 08:38:42;;;;;;;3.30;1.70;;;;;;;;;;5108650;28;20047;-60
2023/07/25 08:41:12;;;;;;;2.50;1.55;;;;;;;;;;5107697;27;20047;-60
2023/07/25 08:43:41;;;;;;;2.63;1.60;;;;;;;;;;5107690;28;20504;-60
2023/07/25 08:46:10;;;;;;;2.08;1.42;;;;;;;;;;5108069;28;20055;-61
2023/07/25 08:48:39;;;;;;;2.75;1.33;;;;;;;;;;5106674;28;20511;-61
2023/07/25 08:51:08;;;;;;;2.40;1.30;;;;;;;;;;5108685;28;20054;-63
2023/07/25 08:53:42;;;;;;;3.95;1.40;;;;;;;;;;5105727;28;20106;-59
2023/07/25 08:56:11;;;;;;;4.10;1.80;;;;;;;;;;5105403;27;20060;-63
2023/07/25 08:58:41;;;;;;;3.15;1.30;;;;;;;;;;5106214;28;20104;-62
2023/07/25 09:01:10;;;;;;;3.28;1.70;;;;;;;;;;5108623;28;20079;-60
2023/07/25 09:03:39;;;;;;;3.80;1.60;;;;;;;;;;5108224;28;20175;-59
2023/07/25 09:06:08;;;;;;;3.88;1.40;;;;;;;;;;5106404;27;20040;-60
2023/07/25 09:08:36;;;;;;;2.50;1.60;;;;;;;;;;5105342;28;20116;-59
2023/07/25 09:11:09;;;;;;;3.97;1.88;;;;;;;;;;5106849;28;20099;-63
2023/07/25 09:13:38;;;;;;;4.22;1.75;;;;;;;;;;5106587;28;20051;-59
2023/07/25 09:16:06;;;;;;;2.78;1.23;;;;;;;;;;5104073;28;20369;-61
2023/07/25 09:18:35;;;;;;;3.28;1.77;;;;;;;;;;5105702;28;20048;-60
2023/07/25 09:21:04;;;;;;;2.53;1.20;;;;;;;;;;5104705;28;20516;-60
2023/07/25 09:23:32;;;;;;;2.33;1.35;;;;;;;;;;5107483;28;20055;-61
2023/07/25 09:26:05;;;;;;;2.42;1.40;;;;;;;;;;5106185;28;20050;-63
2023/07/25 09:28:35;;;;;;;2.60;1.30;;;;;;;;;;5100821;27;20035;-61
2023/07/25 09:31:03;;;;;;;3.53;1.75;;;;;;;;;;5104962;28;20048;-64
2023/07/25 09:33:32;;;;;;;3.83;1.40;;;;;;;;;;5104656;28;20465;-62
2023/07/25 09:36:00;;;;;;;4.20;1.70;;;;;;;;;;5105181;28;20051;-62
2023/07/25 09:38:29;;;;;;;2.78;1.52;;;;;;;;;;5100695;28;20055;-61
2023/07/25 09:40:57;;;;;;;2.42;1.45;;;;;;;;;;5098865;28;20055;-64
2023/07/25 09:43:26;;;;;;;4.32;1.40;;;;;;;;;;5104319;28;20051;-64
2023/07/25 09:45:56;;;;;;;2.28;1.40;;;;;;;;;;5102256;27;20131;-61
2023/07/25 09:48:25;;;;;;;2.70;1.27;;;;;;;;;;5105490;28;20062;-63
2023/07/25 09:50:53;;;;;;;2.88;1.40;;;;;;;;;;5105285;28;20059;-61
2023/07/25 09:53:22;;;;;;;2.30;1.48;;;;;;;;;;5099663;28;20155;-61
2023/07/25 09:55:50;;;;;;;2.95;1.20;;;;;;;;;;5104798;28;20493;-61
2023/07/25 09:58:18;;;;;;;2.15;1.02;;;;;;;;;;5098374;28;20051;-65
2023/07/25 10:00:47;;;;;;;7.75;1.33;;;;;;;;;;5100585;28;20456;-64
2023/07/25 10:03:20;;;;;;;3.45;1.33;;;;;;;;;;5102377;28;20048;-62
2023/07/25 10:05:49;;;;;;;3.05;1.52;;;;;;;;;;5103173;28;20067;-63
2023/07/25 10:08:18;;;;;;;2.17;1.45;;;;;;;;;;5106880;28;20035;-64
2023/07/25 10:10:46;;;;;;;3.13;1.50;;;;;;;;;;5104784;28;20046;-62
2023/07/25 10:13:15;;;;;;;4.50;1.60;;;;;;;;;;5099567;28;20504;-62
2023/07/25 10:15:44;;;;;;;2.00;1.33;;;;;;;;;;5095324;28;20051;-65
2023/07/25 10:18:21;;;;;;;2.72;1.40;;;;;;;;;;5102411;28;20043;-62
2023/07/25 10:20:49;;;;;;;2.92;1.17;;;;;;;;;;5097488;28;20055;-62
2023/07/25 10:23:18;;;;;;;2.65;1.20;;;;;;;;;;5103782;28;20040;-62
2023/07/25 10:25:47;;;;;;;1.80;1.13;;;;;;;;;;5100012;28;20052;-62
2023/07/25 10:28:22;;;;;;;1.52;0.95;;;;;;;;;;5102333;28;20097;-61
2023/07/25 10:30:52;;;;;;;3.50;1.33;;;;;;;;;;5105707;28;20553;-61
2023/07/25 10:33:25;;;;;;;2.15;1.15;;;;;;;;;;5104893;28;20039;-61
2023/07/25 10:35:54;;;;;;;2.92;1.35;;;;;;;;;;5105546;28;20048;-61
2023/07/25 10:38:24;;;;;;;2.15;1.25;;;;;;;;;;5106147;28;20412;-62
2023/07/25 10:40:52;;;;;;;3.92;1.60;;;;;;;;;;5102215;28;20131;-62
2023/07/25 10:43:21;;;;;;;4.07;1.23;;;;;;;;;;5101095;28;20140;-64
2023/07/25 10:45:53;;;;;;;3.95;1.67;;;;;;;;;;5098615;28;20568;-62
2023/07/25 10:48:33;;;;;;;3.03;1.45;;;;;;;;;;5110307;28;20101;-61
2023/07/25 10:51:03;;;;;;;2.88;1.40;;;;;;;;;;5109418;28;20048;-62
2023/07/25 10:53:32;;;;;;;3.35;1.33;;;;;;;;;;5109281;27;20053;-61
2023/07/25 10:56:10;;;;;;;3.13;1.42;;;;;;;;;;5105725;28;20408;-62
2023/07/25 10:58:39;;;;;;;1.90;1.08;;;;;;;;;;5110095;28;20044;-61
2023/07/25 11:01:08;;;;;;;2.90;1.10;;;;;;;;;;5111149;28;20096;-61
2023/07/25 11:03:38;;;;;;;1.67;1.00;;;;;;;;;;5110447;28;20047;-60
2023/07/25 11:06:33;;;;;;;1.85;1.20;;;;;;;;;;5107584;28;20067;-62
2023/07/25 11:09:02;;;;;;;2.90;1.13;;;;;;;;;;5109941;28;20043;-62
2023/07/25 11:11:30;;;;;;;2.00;1.10;;;;;;;;;;5108470;28;20529;-62
2023/07/25 11:14:00;;;;;;;1.63;0.95;;;;;;;;;;5109508;28;20143;-61
2023/07/25 11:16:30;;;;;;;3.08;1.15;;;;;;;;;;5108645;28;20043;-61
2023/07/25 11:19:00;;;;;;;2.53;1.17;;;;;;;;;;5104410;28;20051;-61
2023/07/25 11:21:29;;;;;;;2.22;1.25;;;;;;;;;;5109604;28;20125;-62
2023/07/25 11:24:04;;;;;;;2.45;1.08;;;;;;;;;;5103243;28;20440;-61
2023/07/25 11:26:32;;;;;;;1.73;1.05;;;;;;;;;;5107423;28;20074;-63
2023/07/25 11:29:03;;;;;;;3.40;1.30;;;;;;;;;;5108134;28;20650;-62
2023/07/25 11:31:32;;;;;;;2.10;1.00;;;;;;;;;;5109589;28;20112;-63
2023/07/25 11:34:10;;;;;;;1.90;0.88;;;;;;;;;;5109276;27;20043;-62
2023/07/25 11:36:39;;;;;;;2.13;1.13;;;;;;;;;;5108251;27;20048;-62
2023/07/25 11:39:08;;;;;;;4.13;0.98;;;;;;;;;;5109177;28;20052;-63
2023/07/25 11:41:37;;;;;;;3.60;1.45;;;;;;;;;;5107542;28;20047;-64
2023/07/25 11:44:07;;;;;;;3.08;1.15;;;;;;;;;;5105129;28;20067;-62
2023/07/25 11:46:35;;;;;;;3.78;1.05;;;;;;;;;;5108607;28;20488;-62
2023/07/25 11:49:04;;;;;;;1.55;1.08;;;;;;;;;;5107750;28;20492;-59
2023/07/25 11:51:34;;;;;;;4.47;0.90;;;;;;;;;;5109581;28;20071;-64
2023/07/25 11:54:02;;;;;;;7.47;1.25;;;;;;;;;;5105477;27;20055;-60
2023/07/25 11:56:31;;;;;;;1.65;0.88;;;;;;;;;;5100272;28;20052;-60
2023/07/25 11:59:00;;;;;;;2.15;0.80;;;;;;;;;;5106942;27;20587;-62
2023/07/25 12:01:30;;;;;;;1.77;1.00;;;;;;;;;;5106028;28;20519;-61
2023/07/25 12:04:00;;;;;;;2.13;1.05;;;;;;;;;;5102577;28;20054;-59
2023/07/25 12:06:30;;;;;;;2.50;1.25;;;;;;;;;;5105280;28;20482;-62
2023/07/25 12:09:01;;;;;;;4.28;0.90;;;;;;;;;;5105376;28;20077;-60
2023/07/25 12:11:29;;;;;;;1.50;0.95;;;;;;;;;;5103632;28;20051;-61
2023/07/25 12:13:59;;;;;;;3.08;1.30;;;;;;;;;;5106303;27;20520;-59
2023/07/25 12:16:29;;;;;;;1.85;1.15;;;;;;;;;;5104879;28;20059;-60
2023/07/25 12:18:59;;;;;;;3.17;1.05;;;;;;;;;;5104443;27;20480;-59
2023/07/25 12:21:28;;;;;;;1.63;1.00;;;;;;;;;;5104150;28;20108;-62
2023/07/25 12:23:59;;;;;;;2.75;1.02;;;;;;;;;;5105161;28;20043;-62
2023/07/25 12:26:43;;;;;;;3.58;1.10;;;;;;;;;;5100368;27;20043;-62
2023/07/25 12:29:14;;;;;;;1.95;0.93;;;;;;;;;;5100642;28;20492;-63
2023/07/25 12:31:42;;;;;;;2.15;1.00;;;;;;;;;;5104535;27;20051;-61
2023/07/25 12:34:11;;;;;;;1.92;1.17;;;;;;;;;;5105538;27;20112;-62
2023/07/25 12:36:40;;;;;;;4.25;1.48;;;;;;;;;;5105547;28;20055;-60
2023/07/25 12:39:08;;;;;;;1.92;1.15;;;;;;;;;;5104699;28;20056;-64
2023/07/25 12:41:38;;;;;;;3.08;1.48;;;;;;;;;;5103092;28;20461;-61
2023/07/25 12:44:06;;;;;;;3.15;1.38;;;;;;;;;;5100150;28;20092;-64
2023/07/25 12:46:35;;;;;;;1.40;1.00;;;;;;;;;;5103131;28;20179;-62
2023/07/25 12:49:03;;;;;;;5.32;1.10;;;;;;;;;;5104095;28;20046;-64
2023/07/25 12:51:32;;;;;;;2.00;1.08;;;;;;;;;;5104827;28;20059;-64
2023/07/25 12:54:02;;;;;;;2.50;1.02;;;;;;;;;;5100869;28;20610;-62
2023/07/25 12:56:30;;;;;;;4.97;1.25;;;;;;;;;;5102187;28;20047;-64
2023/07/25 12:59:00;;;;;;;3.17;1.33;;;;;;;;;;5102981;27;20522;-62
2023/07/25 13:01:29;;;;;;;2.15;1.38;;;;;;;;;;5103605;28;20499;-62
2023/07/25 13:03:58;;;;;;;2.55;1.08;;;;;;;;;;5101679;28;20496;-60
2023/07/25 13:06:26;;;;;;;5.30;1.23;;;;;;;;;;5101525;28;20465;-60
2023/07/25 13:08:55;;;;;;;2.58;1.00;;;;;;;;;;5104236;28;20044;-61
2023/07/25 13:11:23;;;;;;;6.18;1.33;;;;;;;;;;5104190;28;20039;-61
2023/07/25 13:13:52;;;;;;;2.78;1.20;;;;;;;;;;5101268;27;20051;-61
2023/07/25 13:16:21;;;;;;;3.83;1.13;;;;;;;;;;5104867;28;20047;-61
2023/07/25 13:18:50;;;;;;;1.70;1.20;;;;;;;;;;5102139;28;20193;-65
2023/07/25 13:21:18;;;;;;;4.35;1.30;;;;;;;;;;5105489;28;20097;-61
2023/07/25 13:23:46;;;;;;;2.22;1.00;;;;;;;;;;5101248;28;20052;-60
2023/07/25 13:26:15;;;;;;;4.07;1.30;;;;;;;;;;5102752;28;20063;-62
2023/07/25 13:28:43;;;;;;;3.08;1.33;;;;;;;;;;5102022;28;20059;-61
2023/07/25 13:31:12;;;;;;;3.35;1.35;;;;;;;;;;5100096;28;20484;-62
2023/07/25 13:33:42;;;;;;;4.85;1.35;;;;;;;;;;5105667;28;20105;-60
2023/07/25 13:36:10;;;;;;;2.63;1.20;;;;;;;;;;5104144;28;20050;-60
2023/07/25 13:38:38;;;;;;;3.92;1.30;;;;;;;;;;5104543;28;20056;-60
2023/07/25 13:41:07;;;;;;;4.47;1.38;;;;;;;;;;5104987;28;20055;-61
2023/07/25 13:43:35;;;;;;;2.83;1.33;;;;;;;;;;5106006;28;20051;-59
2023/07/25 13:46:03;;;;;;;2.40;1.02;;;;;;;;;;5104957;27;20059;-61
2023/07/25 13:48:32;;;;;;;3.20;1.23;;;;;;;;;;5105969;28;20071;-61
2023/07/25 13:51:02;;;;;;;2.25;1.13;;;;;;;;;;5107605;28;20051;-62
2023/07/25 13:53:30;;;;;;;2.83;1.40;;;;;;;;;;5107421;28;20078;-63
2023/07/25 13:55:59;;;;;;;2.92;1.05;;;;;;;;;;5104565;28;20059;-60
2023/07/25 13:58:28;;;;;;;3.85;1.02;;;;;;;;;;5103669;28;20058;-62
2023/07/25 14:00:56;;;;;;;2.50;1.20;;;;;;;;;;5107459;28;20069;-61
2023/07/25 14:03:25;;;;;;;1.42;0.90;;;;;;;;;;5105588;27;20542;-66
2023/07/25 14:05:57;;;;;;;3.67;1.08;;;;;;;;;;5105236;28;20070;-62
2023/07/25 14:08:27;;;;;;;3.92;1.40;;;;;;;;;;5107136;28;20043;-62
2023/07/25 14:10:56;;;;;;;3.40;1.10;;;;;;;;;;5104000;28;20414;-61
2023/07/25 14:13:24;;;;;;;5.53;1.17;;;;;;;;;;5104803;28;20039;-63
2023/07/25 14:15:54;;;;;;;3.53;1.08;;;;;;;;;;5106070;28;20517;-62
2023/07/25 14:18:23;;;;;;;2.15;1.25;;;;;;;;;;5107224;28;20713;-64
2023/07/25 14:20:51;;;;;;;2.03;1.17;;;;;;;;;;5105650;28;20040;-63
2023/07/25 14:23:23;;;;;;;2.55;1.50;;;;;;;;;;5107129;28;20040;-63
2023/07/25 14:25:53;;;;;;;1.60;1.10;;;;;;;;;;5102768;28;20044;-65
2023/07/25 14:28:21;;;;;;;3.00;1.33;;;;;;;;;;5102999;28;20039;-63
2023/07/25 14:30:50;;;;;;;3.67;1.13;;;;;;;;;;5103488;28;20071;-61
2023/07/25 14:33:20;;;;;;;5.55;1.35;;;;;;;;;;5104821;28;20044;-59
2023/07/25 14:35:49;;;;;;;6.55;1.45;;;;;;;;;;5106318;28;20043;-63
2023/07/25 14:38:18;;;;;;;9.27;1.60;;;;;;;;;;5106638;28;20089;-62
2023/07/25 14:40:46;;;;;;;6.82;1.70;;;;;;;;;;5104522;28;20051;-62
2023/07/25 14:43:16;;;;;;;6.63;1.40;;;;;;;;;;5105270;28;20052;-61
2023/07/25 14:45:45;;;;;;;4.38;1.33;;;;;;;;;;5105399;28;20094;-62
2023/07/25 14:48:13;;;;;;;5.18;1.83;;;;;;;;;;5106372;28;20511;-62
2023/07/25 14:50:42;;;;;;;2.33;0.95;;;;;;;;;;5105107;28;20091;-64
2023/07/25 14:53:11;;;;;;;2.88;1.05;;;;;;;;;;5105828;28;20139;-62
2023/07/25 14:55:39;;;;;;;3.78;1.70;;;;;;;;;;5103386;28;20472;-64